sensor_id;sensor_type;location;lat;lon;timestamp;pressure;altitude;pressure_sealevel;temperature;humidity
68889;BME280;55930;47.412;8.790;2023-04-01T00:00:40;93657.19;;;6.13;100.00
68889;BME280;55930;47.412;8.790;2023-04-01T00:04:03;93664.66;;;6.14;100.00
68889;BME280;55930;47.412;8.790;2023-04-01T00:07:23;93650.13;;;6.19;100.00
68889;BME280;55930;47.412;8.790;2023-04-01T00:10:44;93646.31;;;6.20;100.00
68889;BME280;55930;47.412;8.790;2023-04-01T00:14:06;93669.81;;;6.24;100.00
68889;BME280;55930;47.412;8.790;2023-04-01T00:17:27;93666.72;;;6.25;100.00
68889;BME280;55930;47.412;8.790;2023-04-01T00:20:49;93671.09;;;6.28;100.00
68889;BME280;55930;47.412;8.790;2023-04-01T00:24:10;93662.03;;;6.29;100.00
68889;BME280;55930;47.412;8.790;2023-04-01T00:27:33;93675.75;;;6.33;100.00
68889;BME280;55930;47.412;8.790;2023-04-01T00:30:53;93666.38;;;6.32;100.00
68889;BME280;55930;47.412;8.790;2023-04-01T00:34:14;93667.09;;;6.33;100.00
68889;BME280;55930;47.412;8.790;2023-04-01T00:37:36;93661.84;;;6.33;100.00
68889;BME280;55930;47.412;8.790;2023-04-01T00:40:58;93656.13;;;6.34;100.00
68889;BME280;55930;47.412;8.790;2023-04-01T00:44:22;93668.28;;;6.32;100.00
68889;BME280;55930;47.412;8.790;2023-04-01T00:47:43;93678.66;;;6.35;100.00
68889;BME280;55930;47.412;8.790;2023-04-01T00:54:27;93688.63;;;6.31;100.00
68889;BME280;55930;47.412;8.790;2023-04-01T00:57:49;93680.28;;;6.33;100.00
68889;BME280;55930;47.412;8.790;2023-04-01T01:01:13;93690.09;;;6.32;100.00
68889;BME280;55930;47.412;8.790;2023-04-01T01:04:34;93679.75;;;6.29;100.00
68889;BME280;55930;47.412;8.790;2023-04-01T01:12:08;93685.72;;;6.29;100.00
68889;BME280;55930;47.412;8.790;2023-04-01T01:33:47;93650.66;;;6.23;100.00
68889;BME280;55930;47.412;8.790;2023-04-01T01:37:14;93649.47;;;6.24;100.00
68889;BME280;55930;47.412;8.790;2023-04-01T01:40:35;93664.28;;;6.22;100.00
68889;BME280;55930;47.412;8.790;2023-04-01T01:43:59;93651.13;;;6.22;100.00
68889;BME280;55930;47.412;8.790;2023-04-01T01:47:22;93653.47;;;6.20;100.00
68889;BME280;55930;47.412;8.790;2023-04-01T01:50:44;93662.38;;;6.22;100.00
68889;BME280;55930;47.412;8.790;2023-04-01T01:54:05;93651.38;;;6.24;100.00
68889;BME280;55930;47.412;8.790;2023-04-01T01:57:29;93652.84;;;6.25;100.00
68889;BME280;55930;47.412;8.790;2023-04-01T02:00:58;93655.47;;;6.25;100.00
68889;BME280;55930;47.412;8.790;2023-04-01T02:04:21;93648.03;;;6.23;100.00
68889;BME280;55930;47.412;8.790;2023-04-01T02:07:46;93646.84;;;6.24;100.00
68889;BME280;55930;47.412;8.790;2023-04-01T02:11:10;93640.41;;;6.25;100.00
68889;BME280;55930;47.412;8.790;2023-04-01T02:14:43;93644.03;;;6.28;99.60
68889;BME280;55930;47.412;8.790;2023-04-01T02:18:05;93628.41;;;6.24;99.58
68889;BME280;55930;47.412;8.790;2023-04-01T02:21:30;93638.69;;;6.22;99.32
68889;BME280;55930;47.412;8.790;2023-04-01T02:24:54;93638.34;;;6.29;98.84
68889;BME280;55930;47.412;8.790;2023-04-01T02:28:17;93642.88;;;6.29;98.66
68889;BME280;55930;47.412;8.790;2023-04-01T02:31:41;93626.34;;;6.28;98.65
68889;BME280;55930;47.412;8.790;2023-04-01T02:35:03;93634.25;;;6.28;98.06
68889;BME280;55930;47.412;8.790;2023-04-01T02:38:28;93620.50;;;6.24;97.59
68889;BME280;55930;47.412;8.790;2023-04-01T02:41:48;93620.50;;;6.24;96.78
68889;BME280;55930;47.412;8.790;2023-04-01T02:45:10;93629.41;;;6.12;97.40
68889;BME280;55930;47.412;8.790;2023-04-01T02:48:30;93632.84;;;6.18;96.11
68889;BME280;55930;47.412;8.790;2023-04-01T02:51:51;93635.03;;;6.20;96.30
68889;BME280;55930;47.412;8.790;2023-04-01T02:55:12;93634.31;;;6.19;95.98
68889;BME280;55930;47.412;8.790;2023-04-01T02:58:32;93631.97;;;6.21;95.78
68889;BME280;55930;47.412;8.790;2023-04-01T03:01:52;93633.88;;;6.21;95.20
68889;BME280;55930;47.412;8.790;2023-04-01T03:05:13;93637.22;;;6.21;96.29
68889;BME280;55930;47.412;8.790;2023-04-01T03:08:34;93618.78;;;6.21;95.28
68889;BME280;55930;47.412;8.790;2023-04-01T03:11:55;93622.31;;;6.18;95.08
68889;BME280;55930;47.412;8.790;2023-04-01T03:15:18;93623.22;;;6.15;96.20
68889;BME280;55930;47.412;8.790;2023-04-01T03:18:38;93618.53;;;6.19;94.97
68889;BME280;55930;47.412;8.790;2023-04-01T03:21:58;93623.78;;;6.19;95.58
68889;BME280;55930;47.412;8.790;2023-04-01T03:25:19;93626.31;;;6.13;94.82
68889;BME280;55930;47.412;8.790;2023-04-01T03:28:40;93629.22;;;6.15;95.70
68889;BME280;55930;47.412;8.790;2023-04-01T03:32:00;93628.69;;;6.11;94.71
68889;BME280;55930;47.412;8.790;2023-04-01T03:35:21;93628.97;;;6.13;94.15
68889;BME280;55930;47.412;8.790;2023-04-01T03:38:41;93628.75;;;6.17;93.42
68889;BME280;55930;47.412;8.790;2023-04-01T03:42:04;93619.59;;;6.12;93.31
68889;BME280;55930;47.412;8.790;2023-04-01T03:45:26;93616.84;;;6.07;94.30
68889;BME280;55930;47.412;8.790;2023-04-01T03:48:49;93611.22;;;5.99;94.31
68889;BME280;55930;47.412;8.790;2023-04-01T03:52:10;93606.50;;;6.03;93.13
68889;BME280;55930;47.412;8.790;2023-04-01T03:55:35;93600.44;;;6.12;92.47
68889;BME280;55930;47.412;8.790;2023-04-01T03:58:56;93611.25;;;6.14;91.87
68889;BME280;55930;47.412;8.790;2023-04-01T04:02:16;93625.16;;;6.14;92.45
68889;BME280;55930;47.412;8.790;2023-04-01T04:05:57;93628.31;;;6.19;92.02
68889;BME280;55930;47.412;8.790;2023-04-01T04:09:17;93630.06;;;6.22;91.29
68889;BME280;55930;47.412;8.790;2023-04-01T04:12:38;93608.72;;;6.20;92.93
68889;BME280;55930;47.412;8.790;2023-04-01T04:15:58;93625.78;;;6.24;91.93
68889;BME280;55930;47.412;8.790;2023-04-01T04:19:19;93621.06;;;6.28;91.18
68889;BME280;55930;47.412;8.790;2023-04-01T04:22:42;93628.97;;;6.28;91.63
68889;BME280;55930;47.412;8.790;2023-04-01T04:26:07;93625.78;;;6.24;92.36
68889;BME280;55930;47.412;8.790;2023-04-01T04:29:29;93627.88;;;6.20;93.36
68889;BME280;55930;47.412;8.790;2023-04-01T04:32:49;93620.69;;;6.21;93.11
68889;BME280;55930;47.412;8.790;2023-04-01T04:36:09;93629.59;;;6.23;93.08
68889;BME280;55930;47.412;8.790;2023-04-01T04:39:30;93621.97;;;6.25;91.41
68889;BME280;55930;47.412;8.790;2023-04-01T04:42:50;93626.34;;;6.28;92.05
68889;BME280;55930;47.412;8.790;2023-04-01T04:46:11;93626.94;;;6.23;92.85
68889;BME280;55930;47.412;8.790;2023-04-01T04:49:31;93623.88;;;6.25;91.94
68889;BME280;55930;47.412;8.790;2023-04-01T04:52:52;93628.16;;;6.22;94.07
68889;BME280;55930;47.412;8.790;2023-04-01T04:56:12;93635.13;;;6.10;96.46
68889;BME280;55930;47.412;8.790;2023-04-01T04:59:33;93644.53;;;6.02;97.56
68889;BME280;55930;47.412;8.790;2023-04-01T05:02:53;93644.44;;;5.97;98.47
68889;BME280;55930;47.412;8.790;2023-04-01T05:06:17;93655.69;;;5.97;99.24
68889;BME280;55930;47.412;8.790;2023-04-01T05:09:37;93670.19;;;5.93;99.28
68889;BME280;55930;47.412;8.790;2023-04-01T05:12:58;93663.31;;;5.95;99.11
68889;BME280;55930;47.412;8.790;2023-04-01T05:16:20;93671.97;;;5.87;99.89
68889;BME280;55930;47.412;8.790;2023-04-01T05:19:40;93667.34;;;5.82;100.00
68889;BME280;55930;47.412;8.790;2023-04-01T05:23:01;93669.97;;;5.82;100.00
68889;BME280;55930;47.412;8.790;2023-04-01T05:26:21;93669.00;;;5.70;100.00
68889;BME280;55930;47.412;8.790;2023-04-01T05:29:44;93673.34;;;5.82;100.00
68889;BME280;55930;47.412;8.790;2023-04-01T05:33:04;93669.59;;;5.74;100.00
68889;BME280;55930;47.412;8.790;2023-04-01T05:36:25;93675.38;;;5.78;100.00
68889;BME280;55930;47.412;8.790;2023-04-01T05:39:45;93664.06;;;5.87;100.00
68889;BME280;55930;47.412;8.790;2023-04-01T05:43:05;93669.59;;;5.98;100.00
68889;BME280;55930;47.412;8.790;2023-04-01T05:46:26;93670.38;;;5.89;100.00
68889;BME280;55930;47.412;8.790;2023-04-01T05:49:51;93687.09;;;5.77;100.00
68889;BME280;55930;47.412;8.790;2023-04-01T05:53:11;93684.13;;;5.84;100.00
68889;BME280;55930;47.412;8.790;2023-04-01T05:56:32;93698.91;;;5.82;100.00
68889;BME280;55930;47.412;8.790;2023-04-01T05:59:52;93685.69;;;5.91;100.00
68889;BME280;55930;47.412;8.790;2023-04-01T06:03:12;93695.56;;;6.05;100.00
68889;BME280;55930;47.412;8.790;2023-04-01T06:06:33;93695.84;;;6.07;100.00
68889;BME280;55930;47.412;8.790;2023-04-01T06:09:54;93692.25;;;6.19;100.00
68889;BME280;55930;47.412;8.790;2023-04-01T06:36:03;93665.78;;;6.52;97.05
68889;BME280;55930;47.412;8.790;2023-04-01T06:39:58;93670.41;;;6.72;97.23
68889;BME280;55930;47.412;8.790;2023-04-01T06:54:31;93660.31;;;7.00;94.96
68889;BME280;55930;47.412;8.790;2023-04-01T06:57:55;93663.34;;;7.27;94.55
68889;BME280;55930;47.412;8.790;2023-04-01T07:01:24;93665.50;;;7.09;92.95
68889;BME280;55930;47.412;8.790;2023-04-01T07:04:48;93649.91;;;7.11;93.42
68889;BME280;55930;47.412;8.790;2023-04-01T07:08:21;93651.94;;;7.36;91.97
68889;BME280;55930;47.412;8.790;2023-04-01T07:11:45;93669.31;;;7.43;91.34
68889;BME280;55930;47.412;8.790;2023-04-01T07:15:19;93662.47;;;7.51;91.48
68889;BME280;55930;47.412;8.790;2023-04-01T07:22:39;93665.75;;;7.46;89.06
68889;BME280;55930;47.412;8.790;2023-04-01T07:26:09;93661.50;;;7.48;89.63
68889;BME280;55930;47.412;8.790;2023-04-01T07:29:32;93646.78;;;7.62;89.77
68889;BME280;55930;47.412;8.790;2023-04-01T07:36:16;93675.97;;;7.38;90.10
68889;BME280;55930;47.412;8.790;2023-04-01T07:51:13;93696.56;;;7.19;97.47
68889;BME280;55930;47.412;8.790;2023-04-01T07:54:49;93686.72;;;7.20;96.98
68889;BME280;55930;47.412;8.790;2023-04-01T08:02:30;93694.72;;;7.40;96.94
68889;BME280;55930;47.412;8.790;2023-04-01T08:23:47;93691.53;;;7.71;95.17
68889;BME280;55930;47.412;8.790;2023-04-01T08:27:17;93691.16;;;7.78;95.16
68889;BME280;55930;47.412;8.790;2023-04-01T08:30:48;93694.94;;;7.57;96.22
68889;BME280;55930;47.412;8.790;2023-04-01T08:34:19;93684.91;;;7.61;95.53
68889;BME280;55930;47.412;8.790;2023-04-01T08:37:41;93684.63;;;7.39;97.11
68889;BME280;55930;47.412;8.790;2023-04-01T08:48:52;93688.44;;;7.38;98.82
68889;BME280;55930;47.412;8.790;2023-04-01T08:52:36;93697.00;;;7.33;96.65
68889;BME280;55930;47.412;8.790;2023-04-01T09:03:34;93698.16;;;7.46;99.81
68889;BME280;55930;47.412;8.790;2023-04-01T09:25:15;93707.22;;;7.60;100.00
68889;BME280;55930;47.412;8.790;2023-04-01T09:36:07;93700.63;;;7.70;100.00
68889;BME280;55930;47.412;8.790;2023-04-01T09:39:38;93704.22;;;7.52;100.00
68889;BME280;55930;47.412;8.790;2023-04-01T09:50:35;93709.72;;;7.49;100.00
68889;BME280;55930;47.412;8.790;2023-04-01T10:16:44;93699.75;;;9.11;89.93
68889;BME280;55930;47.412;8.790;2023-04-01T10:20:46;93703.28;;;9.03;87.38
68889;BME280;55930;47.412;8.790;2023-04-01T10:24:38;93697.13;;;9.48;87.42
68889;BME280;55930;47.412;8.790;2023-04-01T10:31:35;93693.91;;;9.33;88.06
68889;BME280;55930;47.412;8.790;2023-04-01T10:43:32;93689.84;;;10.34;83.03
68889;BME280;55930;47.412;8.790;2023-04-01T10:54:13;93684.41;;;10.82;77.19
68889;BME280;55930;47.412;8.790;2023-04-01T11:16:47;93684.69;;;11.23;78.64
68889;BME280;55930;47.412;8.790;2023-04-01T11:31:50;93692.34;;;11.77;75.03
68889;BME280;55930;47.412;8.790;2023-04-01T11:35:42;93699.34;;;13.31;69.81
68889;BME280;55930;47.412;8.790;2023-04-01T11:42:46;93688.06;;;11.07;74.94
68889;BME280;55930;47.412;8.790;2023-04-01T11:46:34;93700.81;;;10.75;78.14
68889;BME280;55930;47.412;8.790;2023-04-01T11:50:17;93700.81;;;10.05;82.27
68889;BME280;55930;47.412;8.790;2023-04-01T11:54:06;93705.53;;;10.38;80.54
68889;BME280;55930;47.412;8.790;2023-04-01T12:05:11;93700.09;;;10.74;80.34
68889;BME280;55930;47.412;8.790;2023-04-01T12:08:57;93710.38;;;9.91;80.20
68889;BME280;55930;47.412;8.790;2023-04-01T12:12:42;93711.88;;;10.03;81.53
68889;BME280;55930;47.412;8.790;2023-04-01T12:38:08;93688.50;;;10.66;78.47
68889;BME280;55930;47.412;8.790;2023-04-01T13:10:38;93698.91;;;13.57;70.89
68889;BME280;55930;47.412;8.790;2023-04-01T13:14:16;93702.69;;;12.60;69.60
68889;BME280;55930;47.412;8.790;2023-04-01T13:21:40;93693.84;;;13.53;63.48
68889;BME280;55930;47.412;8.790;2023-04-01T13:28:39;93691.19;;;14.82;56.56
68889;BME280;55930;47.412;8.790;2023-04-01T13:32:26;93682.31;;;14.55;59.56
68889;BME280;55930;47.412;8.790;2023-04-01T13:36:11;93684.69;;;13.49;59.31
68889;BME280;55930;47.412;8.790;2023-04-01T13:43:14;93693.72;;;12.06;63.67
68889;BME280;55930;47.412;8.790;2023-04-01T13:58:35;93703.00;;;10.99;68.22
68889;BME280;55930;47.412;8.790;2023-04-01T14:13:23;93667.97;;;11.62;66.81
68889;BME280;55930;47.412;8.790;2023-04-01T14:17:20;93664.84;;;11.52;68.42
68889;BME280;55930;47.412;8.790;2023-04-01T14:20:53;93670.44;;;11.15;69.22
68889;BME280;55930;47.412;8.790;2023-04-01T14:50:43;93696.06;;;9.72;79.25
68889;BME280;55930;47.412;8.790;2023-04-01T14:54:46;93751.00;;;8.88;93.56
68889;BME280;55930;47.412;8.790;2023-04-01T14:58:16;93740.78;;;7.74;100.00
68889;BME280;55930;47.412;8.790;2023-04-01T15:08:29;93715.06;;;7.89;100.00
68889;BME280;55930;47.412;8.790;2023-04-01T15:26:13;93736.88;;;7.69;100.00
68889;BME280;55930;47.412;8.790;2023-04-01T15:33:27;93750.59;;;7.09;100.00
68889;BME280;55930;47.412;8.790;2023-04-01T15:37:04;93752.19;;;7.65;100.00
68889;BME280;55930;47.412;8.790;2023-04-01T15:40:43;93733.59;;;7.60;100.00
68889;BME280;55930;47.412;8.790;2023-04-01T15:44:31;93716.91;;;8.24;100.00
68889;BME280;55930;47.412;8.790;2023-04-01T15:52:02;93703.38;;;9.14;100.00
68889;BME280;55930;47.412;8.790;2023-04-01T16:21:12;93697.19;;;8.65;100.00
68889;BME280;55930;47.412;8.790;2023-04-01T16:24:55;93712.00;;;8.57;100.00
68889;BME280;55930;47.412;8.790;2023-04-01T16:28:31;93709.22;;;8.66;100.00
68889;BME280;55930;47.412;8.790;2023-04-01T16:32:00;93714.09;;;8.73;100.00
68889;BME280;55930;47.412;8.790;2023-04-01T16:46:27;93716.50;;;8.51;100.00
68889;BME280;55930;47.412;8.790;2023-04-01T16:57:51;93725.09;;;8.26;100.00
68889;BME280;55930;47.412;8.790;2023-04-01T17:01:15;93730.03;;;8.18;100.00
68889;BME280;55930;47.412;8.790;2023-04-01T17:26:37;93760.31;;;7.33;100.00
68889;BME280;55930;47.412;8.790;2023-04-01T17:41:27;93770.50;;;6.96;100.00
68889;BME280;55930;47.412;8.790;2023-04-01T17:59:31;93762.28;;;6.64;100.00
68889;BME280;55930;47.412;8.790;2023-04-01T18:18:04;93778.63;;;6.53;100.00
68889;BME280;55930;47.412;8.790;2023-04-01T18:24:58;93785.91;;;6.59;100.00
68889;BME280;55930;47.412;8.790;2023-04-01T18:35:53;93800.03;;;6.46;100.00
68889;BME280;55930;47.412;8.790;2023-04-01T18:53:35;93814.78;;;6.05;100.00
68889;BME280;55930;47.412;8.790;2023-04-01T18:57:12;93828.84;;;5.93;100.00
68889;BME280;55930;47.412;8.790;2023-04-01T19:00:39;93831.13;;;5.67;100.00
68889;BME280;55930;47.412;8.790;2023-04-01T19:04:24;93830.09;;;5.74;100.00
68889;BME280;55930;47.412;8.790;2023-04-01T19:07:50;93831.25;;;5.73;100.00
68889;BME280;55930;47.412;8.790;2023-04-01T19:11:26;93834.78;;;5.70;100.00
68889;BME280;55930;47.412;8.790;2023-04-01T19:21:58;93849.81;;;5.69;100.00
68889;BME280;55930;47.412;8.790;2023-04-01T19:25:36;93853.19;;;5.70;100.00
68889;BME280;55930;47.412;8.790;2023-04-01T19:43:53;93854.44;;;5.93;100.00
68889;BME280;55930;47.412;8.790;2023-04-01T19:51:29;93863.25;;;5.90;100.00
68889;BME280;55930;47.412;8.790;2023-04-01T19:55:01;93857.69;;;5.78;100.00
68889;BME280;55930;47.412;8.790;2023-04-01T20:05:41;93875.69;;;5.89;100.00
68889;BME280;55930;47.412;8.790;2023-04-01T20:09:34;93872.13;;;5.83;100.00
68889;BME280;55930;47.412;8.790;2023-04-01T20:13:06;93873.72;;;5.99;100.00
68889;BME280;55930;47.412;8.790;2023-04-01T20:20:21;93882.09;;;5.97;100.00
68889;BME280;55930;47.412;8.790;2023-04-01T20:23:53;93874.50;;;5.90;100.00
68889;BME280;55930;47.412;8.790;2023-04-01T20:27:20;93869.97;;;5.82;100.00
68889;BME280;55930;47.412;8.790;2023-04-01T20:34:36;93870.03;;;5.63;100.00
68889;BME280;55930;47.412;8.790;2023-04-01T20:45:35;93871.81;;;5.48;100.00
68889;BME280;55930;47.412;8.790;2023-04-01T20:56:11;93884.06;;;5.51;100.00
68889;BME280;55930;47.412;8.790;2023-04-01T21:06:42;93905.44;;;5.26;100.00
68889;BME280;55930;47.412;8.790;2023-04-01T21:17:40;93904.25;;;5.27;100.00
68889;BME280;55930;47.412;8.790;2023-04-01T21:21:22;93900.19;;;5.26;100.00
68889;BME280;55930;47.412;8.790;2023-04-01T21:35:40;93907.78;;;5.06;100.00
68889;BME280;55930;47.412;8.790;2023-04-01T21:54:35;93931.88;;;5.04;100.00
68889;BME280;55930;47.412;8.790;2023-04-01T22:05:21;93929.38;;;5.28;100.00
68889;BME280;55930;47.412;8.790;2023-04-01T22:09:29;93945.91;;;5.47;100.00
68889;BME280;55930;47.412;8.790;2023-04-01T22:13:06;93940.50;;;5.50;100.00
68889;BME280;55930;47.412;8.790;2023-04-01T22:16:41;93945.75;;;5.41;100.00
68889;BME280;55930;47.412;8.790;2023-04-01T22:20:25;93944.13;;;5.53;100.00
68889;BME280;55930;47.412;8.790;2023-04-01T22:31:11;93950.28;;;5.50;100.00
68889;BME280;55930;47.412;8.790;2023-04-01T22:34:42;93957.72;;;5.60;100.00
68889;BME280;55930;47.412;8.790;2023-04-01T22:49:41;93965.03;;;5.56;100.00
68889;BME280;55930;47.412;8.790;2023-04-01T22:56:55;93974.09;;;5.55;100.00
68889;BME280;55930;47.412;8.790;2023-04-01T23:00:20;93977.31;;;5.50;100.00
68889;BME280;55930;47.412;8.790;2023-04-01T23:03:45;93976.13;;;5.51;100.00
68889;BME280;55930;47.412;8.790;2023-04-01T23:10:56;93982.72;;;5.65;100.00
68889;BME280;55930;47.412;8.790;2023-04-01T23:21:40;93980.38;;;5.58;100.00
68889;BME280;55930;47.412;8.790;2023-04-01T23:28:47;93986.66;;;5.69;100.00
68889;BME280;55930;47.412;8.790;2023-04-01T23:32:24;93977.47;;;5.56;100.00
68889;BME280;55930;47.412;8.790;2023-04-01T23:35:59;93980.53;;;5.54;100.00
68889;BME280;55930;47.412;8.790;2023-04-01T23:39:41;93992.50;;;5.46;100.00
68889;BME280;55930;47.412;8.790;2023-04-01T23:43:15;93992.22;;;5.44;100.00
68889;BME280;55930;47.412;8.790;2023-04-01T23:46:42;93991.94;;;5.33;100.00
68889;BME280;55930;47.412;8.790;2023-04-01T23:50:06;93988.84;;;5.25;100.00
68889;BME280;55930;47.412;8.790;2023-04-01T23:53:33;93988.97;;;5.13;100.00
68889;BME280;55930;47.412;8.790;2023-04-01T23:56:55;93993.63;;;4.99;100.00
